Time;durP1;ratioP1;P1;durP2;ratioP2;P2;SDS_P1;SDS_P2;PMS_P1;PMS_P2;Temp;Humidity;BMP_temperature;BMP_pressure;BME280_temperature;BME280_humidity;BME280_pressure;Samples;Min_cycle;Max_cycle;Signal;HPM_P1;HPM_P2
2021/09/15 00:00:10;;;;;;;4.03;2.85;;;;;;;24.66;60.79;100875.13;1784977;78;21099;-54
2021/09/15 00:02:38;;;;;;;3.83;2.87;;;;;;;24.66;60.77;100872.34;1794226;78;21132;-54
2021/09/15 00:05:06;;;;;;;4.50;3.20;;;;;;;24.65;60.73;100871.56;1785654;78;21017;-54
2021/09/15 00:07:33;;;;;;;5.33;2.60;;;;;;;24.65;60.69;100873.53;1793718;78;21084;-55
2021/09/15 00:10:00;;;;;;;4.70;3.10;;;;;;;24.63;60.63;100868.30;1783986;78;22423;-54
2021/09/15 00:12:26;;;;;;;3.87;2.90;;;;;;;24.62;60.63;100865.27;1788920;78;21126;-55
2021/09/15 00:14:52;;;;;;;3.37;2.70;;;;;;;24.61;60.62;100871.20;1785358;78;21050;-55
2021/09/15 00:17:18;;;;;;;5.05;2.60;;;;;;;24.58;60.61;100867.94;1782368;78;20986;-55
2021/09/15 00:19:44;;;;;;;4.80;2.98;;;;;;;24.59;60.63;100870.14;1786977;78;21068;-54
2021/09/15 00:22:10;;;;;;;3.42;2.33;;;;;;;24.60;60.66;100866.21;1777867;78;21038;-52
2021/09/15 00:24:37;;;;;;;4.12;2.27;;;;;;;24.61;60.74;100858.69;1783752;80;21093;-54
2021/09/15 00:27:03;;;;;;;3.55;2.60;;;;;;;24.62;60.80;100860.28;1783811;78;21030;-53
2021/09/15 00:29:29;;;;;;;4.17;2.87;;;;;;;24.62;60.86;100865.27;1782753;78;20988;-54
2021/09/15 00:31:55;;;;;;;4.58;2.67;;;;;;;24.63;60.87;100865.52;1785893;78;22122;-55
2021/09/15 00:34:22;;;;;;;3.65;2.37;;;;;;;24.63;60.86;100864.70;1786594;78;20998;-53
2021/09/15 00:36:48;;;;;;;4.20;2.87;;;;;;;24.63;60.83;100867.48;1782428;78;21518;-54
2021/09/15 00:39:14;;;;;;;5.15;2.67;;;;;;;24.63;60.81;100863.31;1786906;78;21460;-55
2021/09/15 00:41:40;;;;;;;3.52;2.40;;;;;;;24.62;60.78;100864.45;1783843;78;21165;-54
2021/09/15 00:44:09;;;;;;;4.30;2.62;;;;;;;24.61;60.74;100869.81;1786040;78;21473;-54
2021/09/15 00:46:37;;;;;;;4.17;3.30;;;;;;;24.58;60.76;100860.98;1787762;78;21451;-54
2021/09/15 00:49:03;;;;;;;4.28;2.02;;;;;;;24.57;60.75;100858.53;1784232;78;21042;-54
2021/09/15 00:51:33;;;;;;;3.50;2.27;;;;;;;24.57;60.74;100862.12;1785227;79;21069;-55
2021/09/15 00:54:00;;;;;;;3.50;2.33;;;;;;;24.58;60.81;100866.55;1787476;79;21046;-53
2021/09/15 00:56:26;;;;;;;3.72;2.20;;;;;;;24.60;60.90;100868.17;1784780;78;21436;-55
2021/09/15 00:58:52;;;;;;;3.33;2.08;;;;;;;24.62;60.99;100872.23;1785703;78;21132;-54
2021/09/15 01:01:18;;;;;;;3.22;2.22;;;;;;;24.63;61.05;100873.05;1781757;78;21422;-54
2021/09/15 01:03:44;;;;;;;4.12;2.45;;;;;;;24.64;61.06;100871.89;1784691;78;20942;-55
2021/09/15 01:06:11;;;;;;;4.53;2.70;;;;;;;24.64;61.04;100871.33;1785113;78;21007;-55
2021/09/15 01:08:37;;;;;;;4.60;2.60;;;;;;;24.65;61.00;100872.95;1787954;78;21421;-56
2021/09/15 01:11:03;;;;;;;3.55;2.40;;;;;;;24.65;60.95;100870.75;1782161;78;21110;-55
2021/09/15 01:13:30;;;;;;;2.75;2.15;;;;;;;24.66;60.91;100868.17;1788080;78;20989;-55
2021/09/15 01:15:56;;;;;;;5.00;2.55;;;;;;;24.64;60.86;100865.76;1784069;78;21012;-55
2021/09/15 01:18:22;;;;;;;4.20;2.55;;;;;;;24.63;60.81;100866.91;1786942;78;21125;-55
2021/09/15 01:20:49;;;;;;;3.00;2.35;;;;;;;24.61;60.81;100867.84;1786358;78;21005;-55
2021/09/15 01:23:15;;;;;;;3.52;2.40;;;;;;;24.60;60.81;100865.39;1763417;80;21007;-55
2021/09/15 01:25:41;;;;;;;2.98;2.12;;;;;;;24.56;60.83;100866.66;1780432;78;21466;-54
2021/09/15 01:28:07;;;;;;;3.05;2.25;;;;;;;24.58;60.84;100869.91;1786851;79;21015;-55
2021/09/15 01:30:33;;;;;;;3.35;2.00;;;;;;;24.58;60.89;100873.50;1789817;78;21124;-54
2021/09/15 01:32:59;;;;;;;2.83;2.20;;;;;;;24.59;60.99;100877.09;1783796;78;22009;-55
2021/09/15 01:35:26;;;;;;;2.40;1.87;;;;;;;24.60;61.10;100879.30;1786976;78;21063;-54
2021/09/15 01:37:52;;;;;;;3.08;2.40;;;;;;;24.60;61.15;100872.34;1785945;78;21027;-55
2021/09/15 01:40:18;;;;;;;2.92;1.92;;;;;;;24.62;61.15;100878.37;1785551;78;21101;-54
2021/09/15 01:42:44;;;;;;;4.40;2.30;;;;;;;24.61;61.12;100876.77;1785266;78;20888;-55
2021/09/15 01:45:11;;;;;;;2.92;1.85;;;;;;;24.62;61.13;100874.20;1782755;78;21211;-54
2021/09/15 01:47:38;;;;;;;3.40;2.40;;;;;;;24.61;61.07;100869.23;1787468;78;21081;-54
2021/09/15 01:50:06;;;;;;;4.03;2.22;;;;;;;24.60;61.06;100872.34;1765724;78;21015;-54
2021/09/15 01:52:32;;;;;;;2.85;2.17;;;;;;;24.58;61.01;100871.30;1784573;78;21124;-54
2021/09/15 01:54:58;;;;;;;2.72;2.17;;;;;;;24.56;60.97;100885.56;1790151;78;21055;-54
2021/09/15 01:57:24;;;;;;;2.58;1.90;;;;;;;24.53;60.94;100877.87;1784761;78;22732;-53
2021/09/15 01:59:50;;;;;;;3.10;1.80;;;;;;;24.50;60.93;100878.58;1785237;80;20911;-54
2021/09/15 02:02:16;;;;;;;2.80;2.10;;;;;;;24.51;60.94;100878.00;1783239;79;21623;-55
2021/09/15 02:04:42;;;;;;;3.10;2.08;;;;;;;24.52;60.99;100879.63;1783212;78;21954;-55
2021/09/15 02:07:09;;;;;;;2.90;1.95;;;;;;;24.53;61.07;100877.87;1784174;78;21038;-54
2021/09/15 02:09:35;;;;;;;3.42;1.82;;;;;;;24.55;61.17;100875.58;1786667;79;21139;-55
2021/09/15 02:12:02;;;;;;;2.98;1.95;;;;;;;24.58;61.24;100875.47;1786319;78;21042;-54
2021/09/15 02:14:28;;;;;;;2.77;2.02;;;;;;;24.58;61.25;100870.72;1786726;79;21023;-55
2021/09/15 02:16:54;;;;;;;2.02;1.57;;;;;;;24.60;61.22;100874.56;1795152;77;21604;-54
2021/09/15 02:19:20;;;;;;;3.22;2.40;;;;;;;24.62;61.17;100867.23;1794014;77;21082;-54
2021/09/15 02:21:46;;;;;;;4.12;2.10;;;;;;;24.61;61.09;100870.63;1792709;77;21151;-55
2021/09/15 02:24:12;;;;;;;2.70;1.90;;;;;;;24.61;61.05;100869.23;1792098;78;21025;-55
2021/09/15 02:26:38;;;;;;;3.10;2.20;;;;;;;24.60;60.97;100868.17;1789853;77;21597;-55
2021/09/15 02:29:04;;;;;;;2.92;2.08;;;;;;;24.58;60.92;100869.91;1792174;77;21083;-53
2021/09/15 02:31:31;;;;;;;2.87;2.05;;;;;;;24.56;60.89;100872.23;1796131;77;21057;-51
2021/09/15 02:33:57;;;;;;;2.77;1.75;;;;;;;24.53;60.88;100868.72;1792435;77;22030;-54
2021/09/15 02:36:24;;;;;;;3.92;2.05;;;;;;;24.51;60.88;100876.61;1795983;77;21113;-53
2021/09/15 02:38:50;;;;;;;2.45;1.85;;;;;;;24.47;60.86;100883.44;1793027;77;21560;-53
2021/09/15 02:41:16;;;;;;;2.40;1.85;;;;;;;24.47;60.89;100884.02;1796007;77;21061;-53
2021/09/15 02:43:42;;;;;;;3.67;1.77;;;;;;;24.48;60.92;100873.95;1795495;77;21674;-53
2021/09/15 02:46:08;;;;;;;2.27;1.85;;;;;;;24.49;61.02;100878.91;1797770;77;22087;-53
2021/09/15 02:48:34;;;;;;;3.08;2.00;;;;;;;24.49;61.09;100884.47;1789985;77;20993;-53
2021/09/15 02:51:00;;;;;;;3.05;1.60;;;;;;;24.50;61.14;100887.48;1789754;77;21018;-53
2021/09/15 02:53:26;;;;;;;2.50;1.70;;;;;;;24.51;61.12;100890.52;1795871;78;21200;-53
2021/09/15 02:55:53;;;;;;;3.80;1.80;;;;;;;24.52;61.08;100897.14;1790676;77;21022;-54
2021/09/15 02:58:19;;;;;;;2.92;1.90;;;;;;;24.51;61.03;100893.30;1791148;77;21257;-53
2021/09/15 03:00:45;;;;;;;3.00;1.90;;;;;;;24.51;60.99;100892.72;1791468;77;21552;-53
2021/09/15 03:03:11;;;;;;;2.80;2.12;;;;;;;24.49;60.92;100888.64;1792482;78;21462;-52
2021/09/15 03:05:37;;;;;;;2.45;1.70;;;;;;;24.48;60.90;100892.03;1797065;77;21308;-52
2021/09/15 03:08:03;;;;;;;3.15;2.15;;;;;;;24.46;60.89;100892.93;1792599;77;21124;-52
2021/09/15 03:10:31;;;;;;;2.47;1.87;;;;;;;24.43;60.86;100896.41;1791510;78;21452;-54
2021/09/15 03:12:57;;;;;;;2.55;1.60;;;;;;;24.41;60.84;100898.70;1795648;78;21507;-52
2021/09/15 03:15:23;;;;;;;8.45;2.22;;;;;;;24.41;60.83;100898.70;1781615;78;21090;-52
2021/09/15 03:17:49;;;;;;;2.40;1.72;;;;;;;24.42;60.93;100900.33;1782724;79;21064;-52
2021/09/15 03:20:16;;;;;;;2.72;1.52;;;;;;;24.44;61.02;100898.61;1752361;80;21090;-55
2021/09/15 03:22:42;;;;;;;38.20;10.75;;;;;;;24.45;61.13;100902.42;1758725;80;21651;-52
2021/09/15 03:25:09;;;;;;;222.50;62.10;;;;;;;24.46;61.18;100905.45;1739102;80;21012;-53
2021/09/15 03:27:35;;;;;;;675.58;202.15;;;;;;;24.48;61.19;100898.98;1776282;79;21060;-53
2021/09/15 03:30:04;;;;;;;288.10;57.17;;;;;;;24.51;61.21;100904.42;1775322;79;21595;-53
2021/09/15 03:32:30;;;;;;;194.32;40.33;;;;;;;24.51;61.14;100905.24;1778861;79;21051;-53
2021/09/15 03:34:56;;;;;;;126.12;22.73;;;;;;;24.53;61.07;100911.83;1777751;80;21109;-53
2021/09/15 03:37:22;;;;;;;37.90;7.12;;;;;;;24.53;61.01;100918.21;1779133;79;21117;-53
2021/09/15 03:39:48;;;;;;;78.55;19.62;;;;;;;24.53;60.93;100916.00;1779456;79;21079;-54
2021/09/15 03:42:14;;;;;;;281.02;72.60;;;;;;;24.51;60.90;100917.75;1781726;79;22033;-54
2021/09/15 03:44:40;;;;;;;108.75;27.02;;;;;;;24.51;60.87;100919.14;1776955;79;20919;-54
2021/09/15 03:47:06;;;;;;;180.00;43.30;;;;;;;24.49;60.85;100916.45;1773473;79;22118;-54
2021/09/15 03:49:32;;;;;;;187.70;47.43;;;;;;;24.47;60.81;100927.94;1775028;79;20873;-54
2021/09/15 03:51:58;;;;;;;152.07;40.10;;;;;;;24.45;60.79;100920.50;1778387;79;20966;-54
2021/09/15 03:54:24;;;;;;;74.00;16.23;;;;;;;24.45;60.78;100917.72;1786452;79;20868;-54
2021/09/15 03:56:50;;;;;;;124.80;26.77;;;;;;;24.47;60.84;100917.39;1777158;79;21016;-52
2021/09/15 03:59:16;;;;;;;125.97;27.48;;;;;;;24.47;60.92;100919.59;1779723;79;21236;-52
2021/09/15 04:01:42;;;;;;;122.55;25.27;;;;;;;24.48;60.99;100928.19;1778925;79;21062;-55
2021/09/15 04:04:08;;;;;;;52.25;10.65;;;;;;;24.50;61.03;100926.43;1777689;79;21008;-54
2021/09/15 04:06:34;;;;;;;21.65;4.47;;;;;;;24.49;61.02;100928.39;1773505;80;21505;-52
2021/09/15 04:09:00;;;;;;;20.48;3.33;;;;;;;24.50;60.95;100927.25;1757900;80;21071;-54
2021/09/15 04:11:26;;;;;;;49.55;10.55;;;;;;;24.50;60.91;100923.65;1770276;79;21281;-55
2021/09/15 04:13:52;;;;;;;55.15;15.28;;;;;;;24.50;60.88;100931.42;1761452;80;21714;-51
2021/09/15 04:16:18;;;;;;;177.40;45.95;;;;;;;24.50;60.83;100930.03;1778409;78;20913;-54
2021/09/15 04:18:44;;;;;;;59.38;13.90;;;;;;;24.50;60.80;100927.25;1781178;79;22053;-51
2021/09/15 04:21:11;;;;;;;31.75;8.33;;;;;;;24.48;60.75;100926.80;1777379;79;21041;-50
2021/09/15 04:31:41;;;;;;;4.22;1.72;;;;;;;24.45;60.67;100932.20;1770929;80;21737;-54
2021/09/15 04:34:07;;;;;;;2.15;1.27;;;;;;;24.46;60.76;100937.43;1774167;80;21024;-53
2021/09/15 04:36:34;;;;;;;2.80;1.60;;;;;;;24.47;60.84;100946.02;1778397;80;21252;-51
2021/09/15 04:39:00;;;;;;;3.50;1.35;;;;;;;24.49;60.92;100942.88;1776310;80;21120;-55
2021/09/15 04:41:26;;;;;;;19.80;4.90;;;;;;;24.50;60.96;100944.51;1777871;80;21000;-55
2021/09/15 04:43:52;;;;;;;115.57;32.25;;;;;;;24.50;61.00;100945.33;1739962;81;20903;-55
2021/09/15 04:46:18;;;;;;;32.67;8.00;;;;;;;24.50;60.99;100953.67;1757132;80;21061;-56
2021/09/15 04:48:44;;;;;;;164.43;39.10;;;;;;;24.51;61.01;100953.91;1769640;80;21427;-57
2021/09/15 04:51:11;;;;;;;127.90;28.80;;;;;;;24.52;60.96;100947.78;1774496;80;21238;-56
2021/09/15 04:53:37;;;;;;;187.40;43.30;;;;;;;24.51;60.94;100951.13;1766233;80;21095;-56
2021/09/15 04:56:04;;;;;;;125.75;27.85;;;;;;;24.52;60.90;100949.17;1768430;80;20964;-56
2021/09/15 04:58:30;;;;;;;103.80;21.27;;;;;;;24.50;60.89;100953.67;1755841;80;21077;-59
2021/09/15 05:00:56;;;;;;;127.82;25.85;;;;;;;24.50;60.91;100952.85;1760235;80;21721;-55
2021/09/15 05:03:23;;;;;;;159.78;35.68;;;;;;;24.48;60.88;100957.96;1773010;80;21483;-55
2021/09/15 05:05:49;;;;;;;84.40;19.92;;;;;;;24.49;60.88;100958.98;1775034;80;21082;-58
2021/09/15 05:08:15;;;;;;;124.02;28.62;;;;;;;24.52;61.02;100968.06;1776854;80;21574;-56
2021/09/15 05:10:41;;;;;;;175.12;38.60;;;;;;;24.55;61.17;100968.77;1776070;80;21057;-55
2021/09/15 05:13:07;;;;;;;351.50;89.77;;;;;;;24.56;61.26;100971.80;1781123;79;21354;-52
2021/09/15 05:15:34;;;;;;;163.80;38.02;;;;;;;24.61;61.43;100972.73;1785497;77;21028;-57
2021/09/15 05:18:00;;;;;;;74.12;18.10;;;;;;;24.63;61.52;100978.76;1791057;79;21006;-54
2021/09/15 05:20:26;;;;;;;38.33;12.43;;;;;;;24.64;61.51;100977.04;1792417;78;20977;-53
2021/09/15 05:22:53;;;;;;;36.58;12.88;;;;;;;24.65;61.47;100975.89;1791788;78;21481;-54
2021/09/15 05:25:21;;;;;;;30.25;11.93;;;;;;;24.66;61.44;100975.28;1791591;79;21153;-54
2021/09/15 05:27:47;;;;;;;32.63;12.33;;;;;;;24.67;61.43;100978.31;1795580;78;21069;-54
2021/09/15 05:30:14;;;;;;;29.23;10.20;;;;;;;24.66;61.49;100973.32;1792506;78;20994;-53
2021/09/15 05:32:40;;;;;;;28.25;7.90;;;;;;;24.68;61.56;100977.16;1794410;79;21174;-54
2021/09/15 05:35:08;;;;;;;17.35;5.78;;;;;;;24.66;61.56;100976.67;1790796;79;21619;-53
2021/09/15 05:37:34;;;;;;;13.48;4.35;;;;;;;24.67;61.55;100976.92;1787734;78;21082;-54
2021/09/15 05:40:02;;;;;;;10.30;3.70;;;;;;;24.69;61.61;100975.44;1791654;79;47691;-53
2021/09/15 05:42:28;;;;;;;11.08;3.12;;;;;;;24.71;61.67;100976.47;1792848;78;21091;-52
2021/09/15 05:44:54;;;;;;;7.28;3.42;;;;;;;24.72;61.73;100983.09;1790570;78;21031;-53
2021/09/15 05:47:20;;;;;;;11.12;3.37;;;;;;;24.74;61.76;100978.59;1790593;79;21579;-55
2021/09/15 05:49:46;;;;;;;10.13;3.02;;;;;;;24.73;61.75;100979.17;1794038;78;22160;-54
2021/09/15 05:52:13;;;;;;;8.53;2.65;;;;;;;24.75;61.71;100980.20;1791245;78;21073;-54
2021/09/15 05:54:39;;;;;;;8.15;3.35;;;;;;;24.75;61.65;100980.20;1791539;79;21058;-52
2021/09/15 05:57:05;;;;;;;7.30;3.10;;;;;;;24.75;61.56;100986.58;1792378;78;21017;-52
2021/09/15 05:59:31;;;;;;;6.17;2.72;;;;;;;24.75;61.49;100981.59;1793340;79;21038;-52
2021/09/15 06:01:57;;;;;;;6.60;2.62;;;;;;;24.73;61.43;100985.31;1787167;79;21301;-53
2021/09/15 06:04:23;;;;;;;10.03;3.17;;;;;;;24.72;61.36;100987.27;1793429;78;21544;-54
2021/09/15 06:06:49;;;;;;;5.92;2.90;;;;;;;24.69;61.32;100990.75;1795112;78;20977;-53
2021/09/15 06:09:16;;;;;;;7.08;2.83;;;;;;;24.68;61.27;100986.91;1787248;79;21051;-53
2021/09/15 06:11:42;;;;;;;7.42;2.80;;;;;;;24.65;61.23;100988.98;1792794;78;21529;-54
2021/09/15 06:14:08;;;;;;;3.52;2.05;;;;;;;24.63;61.20;100994.06;1786232;79;21078;-54
2021/09/15 06:16:34;;;;;;;4.87;2.15;;;;;;;24.62;61.17;100991.85;1789920;79;21152;-54
2021/09/15 06:19:00;;;;;;;8.08;1.85;;;;;;;24.63;61.21;100990.70;1782881;79;21696;-52
2021/09/15 06:21:26;;;;;;;5.33;2.33;;;;;;;24.64;61.31;100992.91;1795836;79;20980;-55
2021/09/15 06:23:54;;;;;;;5.58;2.45;;;;;;;24.64;61.38;100991.52;1794777;78;21062;-54
2021/09/15 06:26:25;;;;;;;8.23;2.40;;;;;;;24.64;61.42;100993.73;1788585;79;21960;-53
2021/09/15 06:28:53;;;;;;;4.92;1.98;;;;;;;24.65;61.38;101000.11;1786743;78;21130;-54
2021/09/15 06:31:20;;;;;;;4.75;2.15;;;;;;;24.65;61.32;101000.11;1780983;78;21091;-54
2021/09/15 06:33:46;;;;;;;3.62;1.95;;;;;;;24.64;61.26;101000.69;1785031;79;21109;-54
2021/09/15 06:36:13;;;;;;;7.20;2.25;;;;;;;24.64;61.19;101003.47;1783144;78;21071;-53
2021/09/15 06:38:43;;;;;;;4.45;2.47;;;;;;;24.63;61.14;101001.02;1782325;79;21145;-53
2021/09/15 06:41:09;;;;;;;;;;;;;;;24.62;61.08;101004.95;1792591;79;21058;-54
2021/09/15 06:43:37;;;;;;;4.58;2.05;;;;;;;24.60;61.07;101004.48;1790161;79;20137;-55
2021/09/15 06:46:04;;;;;;;4.55;1.90;;;;;;;24.55;61.03;101009.10;1783412;78;21615;-53
2021/09/15 06:48:30;;;;;;;4.90;2.00;;;;;;;24.53;61.01;101013.36;1788233;78;21062;-55
2021/09/15 06:50:56;;;;;;;4.00;1.80;;;;;;;24.52;61.00;101004.23;1785045;78;21066;-55
2021/09/15 06:53:22;;;;;;;3.50;1.70;;;;;;;24.52;61.06;101002.84;1781918;78;21094;-54
2021/09/15 06:55:49;;;;;;;3.33;1.80;;;;;;;24.55;61.13;101017.45;1782527;79;21477;-54
2021/09/15 06:58:15;;;;;;;5.80;1.90;;;;;;;24.54;61.21;101012.22;1789890;78;22573;-54
2021/09/15 07:00:41;;;;;;;5.85;2.12;;;;;;;24.55;61.24;101004.93;1783772;79;21053;-54
2021/09/15 07:03:07;;;;;;;4.40;1.98;;;;;;;24.56;61.22;101006.56;1794395;78;21314;-55
2021/09/15 07:05:33;;;;;;;4.33;1.87;;;;;;;24.58;61.16;101011.20;1785123;78;21501;-55
2021/09/15 07:08:01;;;;;;;3.40;1.57;;;;;;;24.57;61.10;101009.56;1781824;79;21070;-54
2021/09/15 07:10:28;;;;;;;4.33;1.90;;;;;;;24.57;61.05;101008.17;1785292;78;21117;-55
2021/09/15 07:12:54;;;;;;;2.85;1.62;;;;;;;24.56;61.00;101008.53;1785304;78;21137;-54
2021/09/15 07:15:21;;;;;;;2.92;1.80;;;;;;;24.55;60.94;101013.84;1797503;78;21077;-55
2021/09/15 07:17:47;;;;;;;3.80;1.80;;;;;;;24.53;60.91;101021.70;1780748;79;21638;-55
2021/09/15 07:20:13;;;;;;;3.47;2.42;;;;;;;24.51;60.88;101014.29;1783657;79;21092;-55
2021/09/15 07:22:40;;;;;;;3.52;1.98;;;;;;;24.48;60.83;101017.76;1779278;78;21072;-55
2021/09/15 07:25:07;;;;;;;6.22;1.70;;;;;;;24.49;60.84;101017.97;1783400;79;20856;-55
2021/09/15 07:27:33;;;;;;;3.90;2.00;;;;;;;24.49;60.87;101016.01;1783826;79;21076;-54
2021/09/15 07:29:59;;;;;;;2.50;1.70;;;;;;;24.51;60.97;101019.85;1783767;80;21350;-55
2021/09/15 07:32:27;;;;;;;3.52;1.82;;;;;;;24.53;61.04;101025.88;1781319;79;21058;-55
2021/09/15 07:34:53;;;;;;;3.37;1.90;;;;;;;24.53;61.06;101028.66;1777617;79;21574;-55
2021/09/15 07:37:19;;;;;;;3.67;1.77;;;;;;;24.53;61.06;101023.09;1778335;79;21000;-55
2021/09/15 07:39:45;;;;;;;2.75;1.52;;;;;;;24.54;60.98;101026.13;1779249;79;21311;-56
2021/09/15 07:42:11;;;;;;;2.87;1.70;;;;;;;24.54;60.96;101028.91;1781144;79;21447;-56
2021/09/15 07:44:37;;;;;;;3.58;1.98;;;;;;;24.54;60.90;101024.73;1781333;79;21070;-55
2021/09/15 07:47:04;;;;;;;2.50;1.80;;;;;;;24.53;60.85;101024.48;1784566;80;21081;-54
2021/09/15 07:49:30;;;;;;;4.70;2.37;;;;;;;24.53;60.79;101028.66;1786669;79;21466;-55
2021/09/15 07:51:56;;;;;;;4.53;2.00;;;;;;;24.50;60.74;101021.00;1778825;79;23370;-56
2021/09/15 07:54:22;;;;;;;4.28;1.98;;;;;;;24.47;60.74;101022.50;1782828;79;21070;-54
2021/09/15 07:56:49;;;;;;;3.22;2.05;;;;;;;24.46;60.70;101031.17;1782218;79;20969;-55
2021/09/15 07:59:15;;;;;;;2.87;1.90;;;;;;;24.43;60.68;101025.72;1782931;79;21007;-54
2021/09/15 08:01:41;;;;;;;2.98;1.65;;;;;;;24.45;60.67;101028.97;1778410;79;21117;-53
2021/09/15 08:04:07;;;;;;;4.05;1.80;;;;;;;24.47;60.71;101024.47;1781438;80;21434;-56
2021/09/15 08:06:33;;;;;;;1.75;1.25;;;;;;;24.47;60.81;101023.89;1784646;79;21050;-54
2021/09/15 08:08:59;;;;;;;2.87;1.90;;;;;;;24.50;60.89;101022.39;1781976;79;20982;-55
2021/09/15 08:11:26;;;;;;;3.70;1.90;;;;;;;24.50;60.95;101017.64;1781380;79;21453;-54
2021/09/15 08:13:52;;;;;;;3.37;2.10;;;;;;;24.52;60.95;101015.36;1781192;79;20973;-55
2021/09/15 08:16:20;;;;;;;3.50;1.77;;;;;;;24.54;60.91;101020.56;1785899;79;21093;-54
2021/09/15 08:18:46;;;;;;;3.10;1.77;;;;;;;24.55;60.84;101022.19;1785293;79;21073;-55
2021/09/15 08:21:12;;;;;;;4.83;1.82;;;;;;;24.56;60.78;101011.31;1777059;79;21158;-55
2021/09/15 08:23:38;;;;;;;2.65;1.65;;;;;;;24.54;60.73;101010.83;1783043;78;21501;-55
2021/09/15 08:26:04;;;;;;;4.35;1.57;;;;;;;24.53;60.66;101011.39;1784789;79;21052;-54
2021/09/15 08:28:36;;;;;;;4.08;2.20;;;;;;;24.53;60.61;101006.41;1783857;79;21298;-55
2021/09/15 08:30:58;;;;;;;3.00;2.20;;;;;;;24.51;60.56;101009.55;1778942;79;21027;-55
2021/09/15 08:33:24;;;;;;;3.02;1.80;;;;;;;24.49;60.51;101004.88;1779338;79;21450;-54
2021/09/15 08:35:50;;;;;;;2.40;1.82;;;;;;;24.48;60.50;100999.68;1777809;79;20935;-54
2021/09/15 08:38:16;;;;;;;4.78;2.47;;;;;;;24.45;60.49;101006.72;1782431;79;21008;-55
2021/09/15 08:40:43;;;;;;;2.58;1.45;;;;;;;24.45;60.46;101008.67;1781406;79;21559;-55
2021/09/15 08:43:09;;;;;;;3.72;1.77;;;;;;;24.45;60.45;101003.12;1776754;79;21080;-55
2021/09/15 08:45:35;;;;;;;3.62;1.98;;;;;;;24.46;60.51;101007.53;1784774;79;21058;-55
2021/09/15 08:48:02;;;;;;;2.67;1.77;;;;;;;24.47;60.59;101001.64;1779506;79;21121;-54
2021/09/15 08:50:28;;;;;;;3.77;1.98;;;;;;;24.48;60.67;101003.28;1781870;79;21517;-54
2021/09/15 08:52:56;;;;;;;3.45;1.90;;;;;;;24.50;60.73;100999.56;1782019;79;21278;-54
2021/09/15 08:55:24;;;;;;;3.50;2.00;;;;;;;24.51;60.75;101003.16;1761138;80;21074;-55
2021/09/15 08:57:50;;;;;;;2.12;1.50;;;;;;;24.52;60.69;101002.84;1763076;80;21473;-55
2021/09/15 09:00:17;;;;;;;2.87;1.70;;;;;;;24.53;60.65;100996.09;1764150;79;21019;-53
2021/09/15 09:02:50;;;;;;;2.87;1.95;;;;;;;24.53;60.58;100991.92;1762469;80;21118;-55
2021/09/15 09:05:16;;;;;;;3.77;2.10;;;;;;;24.54;60.53;100987.17;1775534;79;21436;-55
2021/09/15 09:07:42;;;;;;;3.75;1.70;;;;;;;24.54;60.43;100991.35;1782531;79;20954;-52
2021/09/15 09:10:14;;;;;;;2.50;1.72;;;;;;;24.52;60.40;100984.75;1757971;80;21471;-56
2021/09/15 09:12:44;;;;;;;2.45;1.82;;;;;;;24.52;60.36;100983.94;1781469;78;20995;-55
2021/09/15 09:15:23;;;;;;;3.00;1.90;;;;;;;24.51;60.32;100982.30;1788245;79;21074;-55
2021/09/15 09:17:49;;;;;;;3.10;1.95;;;;;;;24.49;60.30;100981.23;1787087;79;21133;-55
2021/09/15 09:20:32;;;;;;;2.95;2.17;;;;;;;24.48;60.29;100977.43;1785319;79;20923;-55
2021/09/15 09:23:15;;;;;;;3.65;2.47;;;;;;;24.45;60.26;100976.13;1785391;79;20992;-53
2021/09/15 09:25:53;;;;;;;2.20;1.60;;;;;;;24.44;60.26;100977.88;1778467;79;21019;-54
2021/09/15 09:28:33;;;;;;;3.80;1.80;;;;;;;24.44;60.26;100974.48;1781945;79;21548;-55
2021/09/15 09:31:05;;;;;;;2.10;1.53;;;;;;;24.44;60.32;100974.48;1779734;79;21116;-55
2021/09/15 09:33:31;;;;;;;2.40;1.55;;;;;;;24.47;60.44;100973.83;1778837;79;20975;-55
2021/09/15 09:36:01;;;;;;;2.87;1.50;;;;;;;24.48;60.51;100967.12;1773837;79;21493;-55
2021/09/15 09:38:42;;;;;;;2.92;1.82;;;;;;;24.48;60.54;100967.12;1778039;79;21018;-55
2021/09/15 09:41:19;;;;;;;2.77;1.67;;;;;;;24.50;60.54;100968.97;1775774;79;21007;-55
2021/09/15 09:43:55;;;;;;;2.90;1.82;;;;;;;24.51;60.48;100971.17;1776873;80;21844;-55
2021/09/15 09:46:30;;;;;;;2.85;2.05;;;;;;;24.52;60.42;100958.91;1779842;79;21004;-55
2021/09/15 09:48:57;;;;;;;2.75;1.72;;;;;;;24.52;60.37;100965.28;1780558;79;21007;-56
2021/09/15 09:51:41;;;;;;;2.92;1.70;;;;;;;24.52;60.29;100961.69;1753959;80;21086;-56
2021/09/15 09:54:21;;;;;;;2.87;1.77;;;;;;;24.51;60.27;100960.87;1779895;79;21030;-55
2021/09/15 09:56:49;;;;;;;3.17;1.87;;;;;;;24.50;60.22;100952.28;1779577;79;21137;-56
2021/09/15 09:59:16;;;;;;;3.45;1.95;;;;;;;24.50;60.17;100954.24;1782480;79;21350;-55
2021/09/15 10:01:49;;;;;;;2.60;1.90;;;;;;;24.48;60.15;100949.62;1776814;79;21054;-55
2021/09/15 10:04:17;;;;;;;4.40;2.00;;;;;;;24.47;60.15;100949.37;1780775;79;21924;-56
2021/09/15 10:06:44;;;;;;;2.45;1.75;;;;;;;24.45;60.11;100951.09;1777941;79;21089;-55
2021/09/15 10:09:11;;;;;;;2.42;1.70;;;;;;;24.45;60.11;100947.49;1781399;79;21242;-55
2021/09/15 10:11:39;;;;;;;2.30;1.50;;;;;;;24.45;60.10;100939.97;1788474;80;21029;-55
2021/09/15 10:14:10;;;;;;;2.10;1.70;;;;;;;24.47;60.15;100941.84;1781342;79;21022;-55
2021/09/15 10:16:42;;;;;;;;;;;;;;;24.49;60.22;100938.13;1788125;79;21437;-56
2021/09/15 10:19:08;;;;;;;2.10;1.60;;;;;;;24.51;60.28;100942.79;1785989;78;20482;-56
2021/09/15 10:21:35;;;;;;;2.37;1.57;;;;;;;24.51;60.32;100941.40;1767521;80;21692;-55
2021/09/15 10:24:03;;;;;;;3.33;1.70;;;;;;;24.51;60.29;100935.84;1788057;78;21564;-55
2021/09/15 10:26:41;;;;;;;2.98;1.80;;;;;;;24.53;60.25;100932.12;1787237;78;21027;-55
2021/09/15 10:29:28;;;;;;;2.20;1.72;;;;;;;24.55;60.19;100939.56;1788231;78;21633;-55
2021/09/15 10:32:12;;;;;;;2.58;1.62;;;;;;;24.57;60.14;100932.24;1786368;78;21006;-56
2021/09/15 10:34:44;;;;;;;3.15;1.90;;;;;;;24.58;60.07;100929.13;1783556;78;21130;-56
2021/09/15 10:37:22;;;;;;;2.77;1.85;;;;;;;24.57;60.02;100923.90;1785096;78;20988;-57
2021/09/15 10:40:09;;;;;;;2.42;1.62;;;;;;;24.57;59.94;100919.73;1786110;79;21082;-56
2021/09/15 10:42:38;;;;;;;2.12;1.92;;;;;;;24.57;59.88;100921.94;1786246;78;21453;-57
2021/09/15 10:45:22;;;;;;;2.37;1.70;;;;;;;24.57;59.83;100916.95;1787096;78;21023;-57
2021/09/15 10:48:04;;;;;;;2.33;1.75;;;;;;;24.56;59.80;100913.38;1789819;78;21144;-57
2021/09/15 10:50:42;;;;;;;2.67;2.00;;;;;;;24.55;59.77;100899.80;1787827;79;21335;-56
2021/09/15 10:53:17;;;;;;;2.20;1.70;;;;;;;24.53;59.71;100894.57;1791269;78;20985;-56
2021/09/15 10:56:02;;;;;;;2.42;1.87;;;;;;;24.55;59.71;100897.84;1785739;78;21480;-56
2021/09/15 11:00:57;;;;;;;1.90;1.42;;;;;;;24.65;59.80;100888.26;1846610;76;22683;-54
2021/09/15 11:03:34;;;;;;;2.37;1.90;;;;;;;24.64;59.87;100886.62;1800372;78;21027;-55
2021/09/15 11:06:12;;;;;;;2.30;1.77;;;;;;;24.65;59.85;100881.30;1745865;80;22046;-55
2021/09/15 11:08:51;;;;;;;2.35;1.77;;;;;;;24.69;59.80;100881.42;1763952;78;20936;-54
2021/09/15 11:11:26;;;;;;;3.00;1.80;;;;;;;24.70;59.71;100878.85;1763768;78;20948;-54
2021/09/15 11:14:01;;;;;;;2.47;1.87;;;;;;;24.72;59.61;100875.16;1764082;80;21007;-55
2021/09/15 11:16:31;;;;;;;2.47;1.87;;;;;;;24.73;59.50;100871.23;1765739;80;21050;-57
2021/09/15 11:19:16;;;;;;;3.35;1.70;;;;;;;24.73;59.42;100873.44;1770526;78;21074;-56
2021/09/15 11:21:54;;;;;;;2.62;1.67;;;;;;;24.73;59.36;100867.87;1771388;80;20932;-55
2021/09/15 11:24:25;;;;;;;2.95;1.80;;;;;;;24.72;59.30;100859.86;1773195;79;20983;-56
2021/09/15 11:27:01;;;;;;;2.45;1.77;;;;;;;24.73;59.22;100858.13;1770222;80;21112;-57
2021/09/15 11:29:48;;;;;;;2.15;1.57;;;;;;;24.73;59.21;100855.92;1770396;80;21029;-56
2021/09/15 11:32:15;;;;;;;2.83;1.80;;;;;;;24.71;59.16;100856.27;1773209;79;21141;-57
2021/09/15 11:34:44;;;;;;;2.60;1.90;;;;;;;24.71;59.12;100849.30;1772175;80;21075;-54